createdAt,value
2018-12-26T00:00:44.422Z,99.99
2018-12-26T00:01:45.126Z,99.99
2018-12-26T00:02:46.872Z,99.99
2018-12-26T00:03:47.176Z,99.99
2018-12-26T00:04:47.765Z,99.99
2018-12-26T00:05:48.478Z,99.99
2018-12-26T00:06:48.944Z,99.99
2018-12-26T00:07:49.539Z,99.99
2018-12-26T00:08:50.134Z,99.99
2018-12-26T00:09:50.725Z,99.99
2018-12-26T00:10:51.308Z,99.99
2018-12-26T00:11:51.901Z,99.99
2018-12-26T00:12:52.495Z,99.99
2018-12-26T00:13:53.088Z,99.99
2018-12-26T00:14:53.673Z,99.99
2018-12-26T00:15:54.268Z,99.99
2018-12-26T00:16:54.851Z,99.99
2018-12-26T00:17:55.441Z,99.99
2018-12-26T00:18:56.033Z,99.99
2018-12-26T00:19:56.724Z,99.99
2018-12-26T00:20:57.239Z,99.99
2018-12-26T00:21:57.846Z,99.99
2018-12-26T00:22:58.424Z,99.99
2018-12-26T00:23:59.141Z,99.99
2018-12-26T00:24:59.605Z,99.99
2018-12-26T00:26:01.730Z,99.99
2018-12-26T00:27:00.783Z,99.99
2018-12-26T00:28:01.377Z,99.99
2018-12-26T00:29:01.969Z,99.99
2018-12-26T00:30:02.562Z,99.99
2018-12-26T00:31:03.157Z,99.99
2018-12-26T00:32:03.743Z,99.99
2018-12-26T00:33:04.334Z,99.99
2018-12-26T00:34:04.928Z,99.99
2018-12-26T00:35:05.522Z,99.99
2018-12-26T00:36:06.107Z,99.99
2018-12-26T00:37:06.698Z,99.99
2018-12-26T00:38:07.284Z,99.99
2018-12-26T00:39:07.877Z,99.99
2018-12-26T00:40:08.467Z,99.99
2018-12-26T00:41:09.062Z,99.99
2018-12-26T00:42:09.650Z,99.99
2018-12-26T00:43:10.247Z,99.99
2018-12-26T00:44:10.836Z,99.99
2018-12-26T00:45:11.430Z,99.99
2018-12-26T00:46:12.024Z,99.99
2018-12-26T00:47:12.614Z,99.99
2018-12-26T00:48:13.211Z,99.99
2018-12-26T00:49:13.800Z,99.99
2018-12-26T00:50:14.383Z,99.99
2018-12-26T00:51:14.979Z,99.99
2018-12-26T00:52:15.582Z,99.99
2018-12-26T00:53:16.165Z,99.99
2018-12-26T00:54:16.756Z,99.99
2018-12-26T00:55:17.351Z,99.99
2018-12-26T00:56:17.941Z,99.99
2018-12-26T00:57:18.537Z,99.99
2018-12-26T00:58:19.120Z,99.99
2018-12-26T00:59:19.711Z,99.99
2018-12-26T01:01:04.509Z,99.99
2018-12-26T01:02:05.130Z,99.99
2018-12-26T01:03:05.725Z,99.99
2018-12-26T01:04:06.323Z,99.99
2018-12-26T01:05:06.918Z,99.99
2018-12-26T01:06:07.513Z,99.99
2018-12-26T01:07:08.111Z,99.99
2018-12-26T01:08:08.706Z,99.99
2018-12-26T01:09:09.304Z,99.99
2018-12-26T01:10:09.903Z,99.99
2018-12-26T01:11:10.522Z,99.99
2018-12-26T01:12:11.117Z,99.99
2018-12-26T01:13:11.715Z,99.99
2018-12-26T01:14:12.313Z,99.99
2018-12-26T01:15:12.911Z,99.99
2018-12-26T01:16:13.505Z,99.99
2018-12-26T01:17:14.101Z,99.99
2018-12-26T01:18:14.697Z,99.99
2018-12-26T01:19:15.293Z,99.99
2018-12-26T01:20:15.893Z,99.99
2018-12-26T01:21:16.489Z,99.99
2018-12-26T01:22:17.087Z,99.99
2018-12-26T01:23:17.683Z,99.99
2018-12-26T01:24:18.278Z,99.99
2018-12-26T01:25:18.875Z,99.99
2018-12-26T01:26:19.565Z,99.99
2018-12-26T01:27:20.082Z,99.99
2018-12-26T01:28:20.679Z,99.99
2018-12-26T01:29:21.275Z,99.99
2018-12-26T01:30:21.896Z,99.99
2018-12-26T01:31:22.491Z,99.99
2018-12-26T01:32:23.086Z,99.99
2018-12-26T01:33:23.683Z,99.99
2018-12-26T01:34:24.283Z,99.99
2018-12-26T01:35:24.877Z,99.99
2018-12-26T01:36:25.475Z,99.99
2018-12-26T01:37:26.071Z,99.99
2018-12-26T01:38:26.668Z,99.99
2018-12-26T01:39:27.268Z,99.99
2018-12-26T01:40:27.861Z,99.99
2018-12-26T01:41:28.458Z,99.99
2018-12-26T01:42:29.057Z,99.99
2018-12-26T01:43:29.653Z,99.99
2018-12-26T01:44:30.249Z,99.99
2018-12-26T01:45:30.845Z,99.99
2018-12-26T01:46:31.440Z,99.99
2018-12-26T01:47:32.059Z,99.99
2018-12-26T01:48:32.655Z,99.99
2018-12-26T01:49:33.251Z,99.99
2018-12-26T01:50:33.851Z,99.99
2018-12-26T01:51:34.467Z,99.99
2018-12-26T01:52:35.063Z,99.99
2018-12-26T01:53:35.681Z,99.99
2018-12-26T01:54:36.280Z,99.99
2018-12-26T01:55:36.876Z,99.99
2018-12-26T01:56:37.476Z,99.99
2018-12-26T01:57:38.068Z,99.99
2018-12-26T01:58:38.666Z,99.99
2018-12-26T01:59:39.316Z,99.99
2018-12-26T02:00:39.857Z,99.99
2018-12-26T02:01:40.458Z,99.99
2018-12-26T02:02:41.074Z,99.99
2018-12-26T02:03:41.671Z,99.99
2018-12-26T02:04:42.268Z,99.99
2018-12-26T02:05:42.871Z,99.99
2018-12-26T02:06:43.464Z,99.99
2018-12-26T02:07:44.059Z,99.99
2018-12-26T02:08:44.677Z,99.99
2018-12-26T02:09:45.275Z,99.99
2018-12-26T02:10:45.873Z,99.99
2018-12-26T02:11:46.468Z,99.99
2018-12-26T02:12:47.063Z,99.99
2018-12-26T02:13:47.660Z,99.99
2018-12-26T02:14:48.261Z,99.99
2018-12-26T02:15:48.874Z,99.99
2018-12-26T02:16:49.470Z,99.99
2018-12-26T02:17:50.066Z,99.99
2018-12-26T02:18:50.661Z,99.99
2018-12-26T02:19:51.263Z,99.99
2018-12-26T02:20:51.857Z,99.99
2018-12-26T02:21:52.454Z,99.99
2018-12-26T02:22:53.049Z,99.99
2018-12-26T02:23:53.666Z,99.99
2018-12-26T02:24:54.268Z,99.99
2018-12-26T02:25:54.884Z,99.99
2018-12-26T02:26:55.502Z,99.99
2018-12-26T02:27:56.098Z,99.99
2018-12-26T02:28:56.695Z,99.99
2018-12-26T02:29:57.318Z,99.99
2018-12-26T02:30:57.929Z,99.99
2018-12-26T02:31:58.529Z,99.99
2018-12-26T02:32:59.134Z,99.99
2018-12-26T02:33:59.723Z,99.99
2018-12-26T02:35:00.417Z,99.99
2018-12-26T02:36:00.954Z,99.99
2018-12-26T02:37:01.549Z,99.99
2018-12-26T02:38:02.152Z,99.99
2018-12-26T02:39:02.743Z,99.99
2018-12-26T02:40:03.365Z,99.99
2018-12-26T02:41:03.956Z,99.99
2018-12-26T02:42:04.560Z,99.99
2018-12-26T02:43:05.173Z,99.99
2018-12-26T02:44:05.770Z,99.99
2018-12-26T02:45:06.365Z,99.99
2018-12-26T02:46:06.984Z,99.99
2018-12-26T02:47:07.636Z,99.99
2018-12-26T02:48:08.212Z,99.99
2018-12-26T02:49:08.815Z,99.99
2018-12-26T02:50:09.414Z,99.99
2018-12-26T02:51:10.012Z,99.99
2018-12-26T02:52:10.641Z,99.99
2018-12-26T02:53:11.229Z,99.99
2018-12-26T02:54:11.826Z,99.99
2018-12-26T02:55:12.424Z,99.99
2018-12-26T02:56:13.023Z,99.99
2018-12-26T02:57:13.639Z,99.99
2018-12-26T02:58:14.234Z,99.99
2018-12-26T02:59:14.843Z,99.99
2018-12-26T03:00:15.450Z,99.99
2018-12-26T03:01:16.046Z,99.99
2018-12-26T03:02:16.642Z,99.99
2018-12-26T03:03:17.242Z,99.99
2018-12-26T03:04:17.839Z,99.99
2018-12-26T03:05:18.435Z,99.99
2018-12-26T03:06:19.031Z,99.99
2018-12-26T03:07:19.650Z,99.99
2018-12-26T03:08:20.249Z,99.99
2018-12-26T03:09:20.845Z,99.99
2018-12-26T03:10:21.441Z,99.99
2018-12-26T03:11:22.038Z,99.99
2018-12-26T03:12:22.633Z,99.99
2018-12-26T03:13:23.252Z,99.99
2018-12-26T03:14:23.870Z,99.99
2018-12-26T03:15:24.466Z,99.99
2018-12-26T03:16:25.065Z,99.99
2018-12-26T03:17:25.662Z,99.99
2018-12-26T03:18:26.326Z,99.99
2018-12-26T03:19:26.859Z,99.99
2018-12-26T03:20:27.456Z,99.99
2018-12-26T03:21:28.069Z,99.99
2018-12-26T03:22:28.666Z,99.99
2018-12-26T03:23:29.263Z,99.99
2018-12-26T03:24:29.860Z,99.99
2018-12-26T03:25:30.455Z,99.99
2018-12-26T03:26:31.078Z,99.99
2018-12-26T03:27:31.672Z,99.99
2018-12-26T03:28:32.269Z,99.99
2018-12-26T03:29:32.866Z,99.99
2018-12-26T03:30:33.464Z,99.99
2018-12-26T03:31:34.062Z,99.99
2018-12-26T03:32:34.680Z,99.99
2018-12-26T03:33:35.274Z,99.99
2018-12-26T03:34:35.872Z,99.99
2018-12-26T03:35:36.474Z,99.99
2018-12-26T03:36:37.068Z,99.99
2018-12-26T03:37:37.663Z,99.99
2018-12-26T03:38:38.260Z,99.99
2018-12-26T03:39:38.855Z,99.99
2018-12-26T03:40:39.452Z,99.99
2018-12-26T03:41:40.048Z,99.99
2018-12-26T03:42:40.646Z,99.99
2018-12-26T03:43:41.266Z,99.99
2018-12-26T03:44:41.889Z,99.99
2018-12-26T03:45:42.457Z,99.99
2018-12-26T03:46:43.058Z,99.99
2018-12-26T03:47:43.653Z,99.99
2018-12-26T03:48:44.249Z,99.99
2018-12-26T03:49:44.844Z,99.99
2018-12-26T03:50:45.440Z,99.99
2018-12-26T03:51:46.040Z,99.99
2018-12-26T03:52:46.652Z,99.99
2018-12-26T03:53:47.248Z,99.99
2018-12-26T03:54:47.845Z,99.99
2018-12-26T03:55:48.443Z,99.99
2018-12-26T03:56:49.036Z,99.99
2018-12-26T03:57:49.634Z,99.99
2018-12-26T03:58:50.233Z,99.99
2018-12-26T03:59:50.828Z,99.99
2018-12-26T04:00:51.422Z,99.99
2018-12-26T04:01:52.019Z,99.99
2018-12-26T04:02:52.615Z,99.99
2018-12-26T04:03:53.212Z,99.99
2018-12-26T04:04:53.809Z,99.99
2018-12-26T04:05:54.409Z,99.99
2018-12-26T04:06:55.032Z,99.99
2018-12-26T04:07:55.644Z,99.99
2018-12-26T04:08:56.254Z,99.99
2018-12-26T04:09:56.837Z,99.99
2018-12-26T04:10:57.433Z,99.99
2018-12-26T04:11:58.030Z,99.99
2018-12-26T04:12:58.627Z,99.99
2018-12-26T04:13:59.224Z,99.99
2018-12-26T04:14:59.821Z,99.99
2018-12-26T04:16:00.418Z,99.99
2018-12-26T04:17:01.012Z,99.99
2018-12-26T04:18:01.615Z,99.99
2018-12-26T04:19:02.205Z,99.99
2018-12-26T04:20:02.832Z,99.99
2018-12-26T04:21:03.419Z,99.99
2018-12-26T04:22:04.016Z,99.99
2018-12-26T04:23:04.633Z,99.99
2018-12-26T04:24:05.229Z,99.99
2018-12-26T04:25:05.828Z,99.99
2018-12-26T04:26:06.423Z,99.99
2018-12-26T04:27:15.331Z,99.99
2018-12-26T04:28:08.609Z,99.99
2018-12-26T04:29:09.205Z,99.99
2018-12-26T04:30:09.804Z,99.99
2018-12-26T04:31:10.401Z,99.99
2018-12-26T04:32:10.997Z,99.99
2018-12-26T04:33:11.614Z,99.99
2018-12-26T04:34:12.213Z,99.99
2018-12-26T04:35:12.830Z,99.99
2018-12-26T04:36:13.426Z,99.99
2018-12-26T04:37:14.022Z,99.99
2018-12-26T04:38:14.620Z,99.99
2018-12-26T04:39:15.219Z,99.99
2018-12-26T04:40:15.815Z,99.99
2018-12-26T04:41:16.411Z,99.99
2018-12-26T04:42:17.030Z,99.99
2018-12-26T04:43:17.649Z,99.99
2018-12-26T04:44:18.266Z,99.99
2018-12-26T04:45:18.862Z,99.99
2018-12-26T04:46:19.459Z,99.99
2018-12-26T04:47:20.059Z,99.99
2018-12-26T04:48:20.651Z,99.99
2018-12-26T04:49:21.248Z,99.99
2018-12-26T04:50:21.848Z,99.99
2018-12-26T04:51:22.443Z,99.99
2018-12-26T04:52:23.039Z,99.99
2018-12-26T04:53:23.634Z,99.99
2018-12-26T04:54:24.231Z,99.99
2018-12-26T04:55:24.827Z,99.99
2018-12-26T04:56:25.407Z,99.99
2018-12-26T04:57:25.998Z,99.99
2018-12-26T04:58:26.588Z,99.99
2018-12-26T04:59:27.173Z,99.99
2018-12-26T05:00:27.768Z,99.99
2018-12-26T05:01:28.356Z,99.99
2018-12-26T05:02:28.941Z,99.99
2018-12-26T05:03:29.521Z,99.99
2018-12-26T05:04:30.105Z,99.99
2018-12-26T05:05:30.699Z,99.99
2018-12-26T05:06:31.289Z,99.99
2018-12-26T05:07:31.875Z,99.99
2018-12-26T05:08:32.464Z,99.99
2018-12-26T05:09:33.055Z,99.99
2018-12-26T05:10:33.643Z,99.99
2018-12-26T05:11:34.232Z,99.99
2018-12-26T05:12:34.814Z,99.99
2018-12-26T05:13:35.403Z,99.99
2018-12-26T05:14:35.996Z,99.99
2018-12-26T05:15:36.584Z,99.99
2018-12-26T05:16:37.181Z,99.99
2018-12-26T05:17:37.763Z,99.99
2018-12-26T05:18:38.345Z,99.99
2018-12-26T05:19:38.937Z,99.99
2018-12-26T05:20:39.524Z,99.99
2018-12-26T05:21:40.119Z,99.99
2018-12-26T05:22:40.698Z,99.99
2018-12-26T05:23:41.292Z,99.99
2018-12-26T05:24:41.877Z,99.99
2018-12-26T05:25:42.471Z,99.99
2018-12-26T05:26:43.066Z,99.99
2018-12-26T05:27:43.656Z,99.99
2018-12-26T05:28:44.248Z,99.99
2018-12-26T05:29:44.836Z,99.99
2018-12-26T05:30:45.417Z,99.99
2018-12-26T05:31:46.005Z,99.99
2018-12-26T05:32:46.588Z,99.99
2018-12-26T05:33:47.185Z,99.99
2018-12-26T05:34:47.771Z,99.99
2018-12-26T05:35:48.362Z,99.99
2018-12-26T05:36:48.955Z,99.99
2018-12-26T05:37:49.554Z,99.99
2018-12-26T05:38:50.147Z,99.99
2018-12-26T05:39:50.745Z,99.99
2018-12-26T05:40:51.332Z,99.99
2018-12-26T05:41:51.921Z,99.99
2018-12-26T05:42:52.526Z,99.99
2018-12-26T05:43:53.098Z,99.99
2018-12-26T05:44:53.691Z,99.99
2018-12-26T05:45:54.280Z,99.99
2018-12-26T05:46:54.870Z,99.99
2018-12-26T05:47:55.462Z,99.99
2018-12-26T05:48:56.046Z,99.99
2018-12-26T05:49:56.734Z,99.99
2018-12-26T05:50:57.235Z,99.99
2018-12-26T05:51:57.827Z,99.99
2018-12-26T05:52:58.422Z,99.99
2018-12-26T05:53:59.015Z,99.99
2018-12-26T05:54:59.610Z,99.99
2018-12-26T05:56:00.199Z,99.99
2018-12-26T05:57:00.784Z,99.99
2018-12-26T05:58:01.376Z,99.99
2018-12-26T05:59:01.966Z,99.99
2018-12-26T06:00:02.551Z,99.99
2018-12-26T06:01:03.141Z,99.99
2018-12-26T06:02:03.731Z,99.99
2018-12-26T06:03:04.319Z,99.99
2018-12-26T06:04:04.909Z,99.99
2018-12-26T06:05:05.505Z,99.99
2018-12-26T06:06:06.103Z,99.99
2018-12-26T06:07:06.692Z,99.99
2018-12-26T06:08:07.282Z,99.99
2018-12-26T06:09:07.867Z,99.99
2018-12-26T06:10:08.455Z,99.99
2018-12-26T06:11:09.038Z,99.99
2018-12-26T06:12:11.497Z,99.99
2018-12-26T06:13:10.279Z,99.99
2018-12-26T06:14:10.806Z,99.99
2018-12-26T06:15:11.400Z,99.99
2018-12-26T06:16:11.992Z,99.99
2018-12-26T06:17:12.586Z,99.99
2018-12-26T06:18:13.179Z,99.99
2018-12-26T06:19:13.771Z,99.99
2018-12-26T06:20:14.362Z,99.99
2018-12-26T06:21:15.002Z,99.99
2018-12-26T06:22:15.613Z,99.99
2018-12-26T06:23:16.181Z,99.99
2018-12-26T06:24:16.777Z,99.99
2018-12-26T06:25:17.370Z,99.99
2018-12-26T06:26:17.950Z,99.99
2018-12-26T06:27:18.544Z,99.99
2018-12-26T06:28:19.126Z,99.99
2018-12-26T06:29:19.710Z,99.99
2018-12-26T06:30:20.304Z,99.99
2018-12-26T06:31:20.893Z,99.99
2018-12-26T06:32:21.475Z,99.99
2018-12-26T06:33:22.065Z,99.99
2018-12-26T06:34:22.653Z,99.99
2018-12-26T06:35:23.235Z,99.99
2018-12-26T06:36:23.818Z,99.99
2018-12-26T06:37:24.409Z,99.99
2018-12-26T06:38:25.003Z,99.99
2018-12-26T06:39:25.594Z,99.99
2018-12-26T06:40:26.185Z,99.99
2018-12-26T06:41:26.779Z,99.99
2018-12-26T06:42:27.370Z,99.99
2018-12-26T06:43:27.965Z,99.99
2018-12-26T06:44:28.555Z,99.99
2018-12-26T06:45:29.155Z,99.99
2018-12-26T06:46:29.738Z,99.99
2018-12-26T06:47:30.329Z,99.99
2018-12-26T06:48:30.913Z,99.99
2018-12-26T06:49:31.505Z,99.99
2018-12-26T06:50:32.098Z,99.99
2018-12-26T06:51:32.688Z,99.99
2018-12-26T06:52:33.275Z,99.99
2018-12-26T06:53:33.865Z,99.99
2018-12-26T06:54:34.457Z,99.99
2018-12-26T06:55:35.041Z,99.99
2018-12-26T06:56:35.633Z,99.99
2018-12-26T06:57:36.224Z,99.99
2018-12-26T06:58:36.809Z,99.99
2018-12-26T06:59:37.392Z,99.99
2018-12-26T07:00:37.984Z,99.99
2018-12-26T07:01:38.578Z,99.99
2018-12-26T07:02:39.175Z,99.99
2018-12-26T07:03:39.757Z,99.99
2018-12-26T07:04:40.349Z,99.99
2018-12-26T07:05:40.932Z,99.99
2018-12-26T07:06:41.530Z,99.99
2018-12-26T07:07:42.117Z,99.99
2018-12-26T07:08:42.709Z,99.99
2018-12-26T07:09:43.303Z,99.99
2018-12-26T07:10:43.896Z,99.99
2018-12-26T07:11:44.491Z,99.99
2018-12-26T07:12:45.084Z,99.99
2018-12-26T07:13:45.679Z,99.99
2018-12-26T07:14:46.274Z,99.99
2018-12-26T07:15:46.861Z,99.99
2018-12-26T07:16:47.450Z,99.99
2018-12-26T07:17:48.042Z,99.99
2018-12-26T07:18:48.642Z,99.99
2018-12-26T07:19:49.232Z,99.99
2018-12-26T07:20:49.818Z,99.99
2018-12-26T07:21:50.404Z,99.99
2018-12-26T07:22:51.005Z,99.99
2018-12-26T07:23:51.585Z,99.99
2018-12-26T07:24:52.189Z,99.99
2018-12-26T07:25:52.769Z,99.99
2018-12-26T07:26:53.364Z,99.99
2018-12-26T07:27:53.962Z,99.99
2018-12-26T07:28:54.553Z,99.99
2018-12-26T07:29:55.149Z,99.99
2018-12-26T07:30:55.734Z,99.99
2018-12-26T07:31:56.321Z,99.99
2018-12-26T07:32:56.908Z,99.99
2018-12-26T07:33:57.504Z,99.99
2018-12-26T07:34:58.094Z,99.99
2018-12-26T07:35:58.686Z,99.99
2018-12-26T07:36:59.273Z,99.99
2018-12-26T07:37:59.858Z,99.99
2018-12-26T07:39:00.453Z,99.99
2018-12-26T07:40:01.046Z,99.99
2018-12-26T07:41:01.634Z,99.99
2018-12-26T07:42:02.245Z,99.99
2018-12-26T07:43:02.829Z,99.99
2018-12-26T07:44:03.423Z,99.99
2018-12-26T07:45:04.008Z,99.99
2018-12-26T07:46:04.602Z,99.99
2018-12-26T07:47:05.219Z,99.99
2018-12-26T07:48:05.787Z,99.99
2018-12-26T07:49:06.374Z,99.99
2018-12-26T07:50:07.028Z,99.99
2018-12-26T07:51:07.565Z,99.99
2018-12-26T07:52:08.163Z,99.99
2018-12-26T07:53:08.763Z,99.99
2018-12-26T07:54:09.350Z,99.99
2018-12-26T07:55:09.940Z,99.99
2018-12-26T07:56:10.533Z,99.99
2018-12-26T07:57:11.121Z,99.99
2018-12-26T07:58:17.580Z,99.99
2018-12-26T07:59:13.288Z,99.99
2018-12-26T08:00:13.884Z,99.99
2018-12-26T08:01:14.483Z,99.99
2018-12-26T08:02:15.077Z,99.99
2018-12-26T08:03:15.665Z,99.99
2018-12-26T08:04:16.249Z,99.99
2018-12-26T08:05:16.842Z,99.99
2018-12-26T08:06:17.435Z,99.99
2018-12-26T08:07:18.022Z,99.99
2018-12-26T08:08:18.614Z,99.99
2018-12-26T08:09:19.210Z,99.99
2018-12-26T08:10:19.892Z,99.99
2018-12-26T08:11:20.397Z,99.99
2018-12-26T08:12:20.992Z,99.99
2018-12-26T08:13:21.633Z,99.99
2018-12-26T08:14:22.195Z,99.99
2018-12-26T08:15:22.794Z,99.99
2018-12-26T08:16:23.389Z,99.99
2018-12-26T08:17:23.990Z,99.99
2018-12-26T08:18:24.576Z,99.99
2018-12-26T08:19:25.173Z,99.99
2018-12-26T08:20:25.762Z,99.99
2018-12-26T08:21:26.349Z,99.99
2018-12-26T08:22:26.935Z,99.99
2018-12-26T08:23:27.533Z,99.99
2018-12-26T08:24:28.126Z,99.99
2018-12-26T08:25:28.754Z,99.99
2018-12-26T08:26:29.336Z,99.99
2018-12-26T08:27:29.924Z,99.99
2018-12-26T08:28:30.522Z,99.99
2018-12-26T08:29:31.115Z,99.99
2018-12-26T08:30:31.704Z,99.99
2018-12-26T08:31:32.301Z,99.99
2018-12-26T08:32:32.895Z,99.99
2018-12-26T08:33:33.498Z,99.99
2018-12-26T08:34:34.075Z,99.99
2018-12-26T08:35:34.664Z,99.99
2018-12-26T08:36:35.251Z,99.99
2018-12-26T08:37:35.842Z,99.99
2018-12-26T08:38:36.438Z,99.99
2018-12-26T08:39:37.036Z,99.99
2018-12-26T08:40:37.625Z,99.99
2018-12-26T08:41:38.219Z,99.99
2018-12-26T08:42:38.891Z,99.99
2018-12-26T08:43:39.404Z,99.99
2018-12-26T08:44:40.000Z,99.99
2018-12-26T08:45:40.604Z,99.99
2018-12-26T08:46:41.193Z,99.99
2018-12-26T08:47:41.794Z,99.99
2018-12-26T08:48:42.388Z,99.99
2018-12-26T08:49:43.002Z,99.99
2018-12-26T08:50:43.563Z,99.99
2018-12-26T08:51:44.164Z,99.99
2018-12-26T08:52:44.758Z,99.99
2018-12-26T08:53:45.359Z,99.99
2018-12-26T08:54:45.956Z,99.99
2018-12-26T08:55:46.552Z,99.99
2018-12-26T08:56:47.160Z,99.99
2018-12-26T08:57:47.758Z,99.99
2018-12-26T08:58:48.343Z,99.99
2018-12-26T08:59:48.942Z,99.99
2018-12-26T09:00:49.532Z,99.99
2018-12-26T09:01:50.128Z,99.99
2018-12-26T09:02:50.730Z,99.99
2018-12-26T09:03:51.326Z,99.99
2018-12-26T09:04:51.918Z,99.99
2018-12-26T09:05:52.518Z,99.99
2018-12-26T09:06:53.112Z,99.99
2018-12-26T09:07:53.700Z,99.99
2018-12-26T09:08:54.306Z,99.99
2018-12-26T09:09:54.893Z,99.99
2018-12-26T09:10:55.488Z,99.99
2018-12-26T09:11:56.093Z,99.99
2018-12-26T09:12:56.689Z,99.99
2018-12-26T09:13:57.290Z,99.99
2018-12-26T09:14:57.890Z,99.99
2018-12-26T09:15:58.489Z,99.99
2018-12-26T09:16:59.083Z,99.99
2018-12-26T09:17:59.677Z,99.99
2018-12-26T09:19:00.274Z,99.99
2018-12-26T09:20:00.873Z,99.99
2018-12-26T09:21:01.470Z,99.99
2018-12-26T09:22:02.063Z,99.99
2018-12-26T09:23:02.660Z,99.99
2018-12-26T09:24:03.264Z,99.99
2018-12-26T09:25:03.851Z,99.99
2018-12-26T09:26:04.443Z,99.99
2018-12-26T09:27:05.045Z,99.99
2018-12-26T09:28:05.645Z,99.99
2018-12-26T09:29:06.246Z,99.99
2018-12-26T09:30:06.845Z,99.99
2018-12-26T09:31:07.440Z,99.99
2018-12-26T09:32:08.031Z,99.99
2018-12-26T09:33:08.659Z,99.99
2018-12-26T09:34:09.230Z,99.99
2018-12-26T09:35:09.824Z,99.99
2018-12-26T09:36:10.427Z,99.99
2018-12-26T09:37:11.020Z,99.99
2018-12-26T09:38:11.616Z,99.99
2018-12-26T09:39:12.209Z,99.99
2018-12-26T09:40:12.825Z,99.99
2018-12-26T09:41:13.424Z,99.99
2018-12-26T09:42:14.019Z,99.99
2018-12-26T09:43:14.625Z,99.99
2018-12-26T09:44:15.223Z,99.99
2018-12-26T09:45:15.826Z,99.99
2018-12-26T09:46:16.427Z,99.99
2018-12-26T09:47:17.028Z,99.99
2018-12-26T09:48:17.633Z,99.99
2018-12-26T09:49:18.263Z,99.99
2018-12-26T09:50:18.834Z,99.99
2018-12-26T09:51:19.436Z,99.99
2018-12-26T09:52:20.035Z,99.99
2018-12-26T09:53:20.639Z,99.99
2018-12-26T09:54:21.230Z,99.99
2018-12-26T09:55:21.834Z,99.99
2018-12-26T09:56:22.438Z,99.99
2018-12-26T09:57:23.038Z,99.99
2018-12-26T09:58:23.640Z,99.99
2018-12-26T09:59:24.244Z,99.99
2018-12-26T10:00:24.846Z,99.99
2018-12-26T10:01:25.443Z,99.99
2018-12-26T10:02:26.049Z,99.99
2018-12-26T10:03:26.642Z,99.99
2018-12-26T10:04:27.242Z,99.99
2018-12-26T10:05:27.843Z,99.99
2018-12-26T10:06:28.446Z,99.99
2018-12-26T10:07:29.048Z,99.99
2018-12-26T10:08:29.655Z,99.99
2018-12-26T10:09:30.256Z,99.99
2018-12-26T10:10:30.859Z,99.99
2018-12-26T10:11:31.451Z,99.99
2018-12-26T10:12:32.051Z,99.99
2018-12-26T10:13:32.657Z,99.99
2018-12-26T10:14:33.243Z,99.99
2018-12-26T10:15:33.852Z,99.99
2018-12-26T10:16:34.442Z,99.99
2018-12-26T10:17:35.161Z,99.99
2018-12-26T10:18:35.642Z,99.99
2018-12-26T10:19:36.241Z,99.99
2018-12-26T10:20:36.844Z,99.99
2018-12-26T10:21:37.445Z,99.99
2018-12-26T10:22:38.041Z,99.99
2018-12-26T10:23:38.643Z,99.99
2018-12-26T10:24:39.242Z,99.99
2018-12-26T10:25:39.835Z,99.99
2018-12-26T10:26:40.436Z,99.99
2018-12-26T10:27:41.037Z,99.99
2018-12-26T10:28:41.640Z,98.64
2018-12-26T10:29:42.243Z,98.83
2018-12-26T10:30:42.848Z,98.92
2018-12-26T10:31:43.438Z,99.07
2018-12-26T10:32:44.033Z,98.97
2018-12-26T10:33:44.639Z,98.12
2018-12-26T10:34:45.243Z,96.84
2018-12-26T10:35:45.846Z,96.26
2018-12-26T10:36:46.456Z,95.08
2018-12-26T10:37:47.052Z,93.84
2018-12-26T10:38:47.648Z,92.32
2018-12-26T10:39:48.244Z,90.56
2018-12-26T10:40:48.838Z,90.18
2018-12-26T10:41:49.434Z,89.42
2018-12-26T10:42:50.029Z,88.75
2018-12-26T10:43:50.636Z,87.56
2018-12-26T10:44:51.234Z,86.90
2018-12-26T10:45:51.838Z,86.61
2018-12-26T10:46:52.446Z,85.47
2018-12-26T10:47:53.051Z,83.98
2018-12-26T10:48:53.664Z,83.09
2018-12-26T10:49:54.269Z,82.93
2018-12-26T10:50:54.879Z,82.56
2018-12-26T10:51:55.482Z,81.89
2018-12-26T10:52:56.079Z,81.32
2018-12-26T10:53:56.689Z,80.84
2018-12-26T10:54:57.288Z,79.60
2018-12-26T10:55:57.886Z,79.51
2018-12-26T10:56:58.487Z,79.17
2018-12-26T10:57:59.088Z,78.78
2018-12-26T10:58:59.965Z,78.83
2018-12-26T11:00:00.299Z,77.78
2018-12-26T11:01:00.899Z,77.69
2018-12-26T11:02:01.512Z,76.64
2018-12-26T11:03:02.113Z,74.92
2018-12-26T11:04:02.710Z,74.98
2018-12-26T11:05:03.335Z,74.50
2018-12-26T11:06:03.940Z,75.13
2018-12-26T11:07:04.547Z,75.42
2018-12-26T11:08:05.152Z,75.85
2018-12-26T11:09:05.760Z,76.04
2018-12-26T11:10:06.372Z,76.20
2018-12-26T11:11:06.966Z,76.96
2018-12-26T11:12:07.565Z,78.48
2018-12-26T11:13:08.158Z,79.14
2018-12-26T11:14:08.756Z,80.00
2018-12-26T11:15:09.352Z,80.19
2018-12-26T11:16:09.957Z,81.01
2018-12-26T11:17:10.561Z,81.38
2018-12-26T11:18:11.172Z,81.77
2018-12-26T11:19:11.769Z,81.77
2018-12-26T11:20:12.377Z,81.77
2018-12-26T11:21:12.980Z,81.62
2018-12-26T11:22:13.585Z,80.10
2018-12-26T11:23:14.182Z,79.33
2018-12-26T11:24:14.786Z,79.05
2018-12-26T11:25:15.393Z,78.96
2018-12-26T11:26:15.997Z,78.86
2018-12-26T11:27:16.603Z,78.86
2018-12-26T11:28:17.208Z,78.57
2018-12-26T11:29:18.803Z,78.57
2018-12-26T11:30:18.408Z,79.14
2018-12-26T11:31:19.012Z,78.57
2018-12-26T11:32:19.617Z,78.96
2018-12-26T11:33:20.209Z,78.77
2018-12-26T11:34:20.814Z,79.43
2018-12-26T11:35:21.409Z,80.86
2018-12-26T11:36:22.006Z,81.67
2018-12-26T11:37:22.612Z,82.05
2018-12-26T11:38:23.211Z,82.91
2018-12-26T11:39:23.814Z,83.29
2018-12-26T11:40:24.418Z,83.19
2018-12-26T11:41:25.020Z,82.81
2018-12-26T11:42:25.621Z,82.05
2018-12-26T11:43:26.218Z,81.67
2018-12-26T11:44:26.823Z,81.86
2018-12-26T11:45:27.427Z,82.24
2018-12-26T11:46:28.023Z,81.73
2018-12-26T11:47:28.623Z,81.73
2018-12-26T11:48:29.220Z,82.20
2018-12-26T11:49:29.826Z,82.87
2018-12-26T11:50:30.426Z,82.77
2018-12-26T11:51:31.020Z,82.49
2018-12-26T11:52:31.624Z,82.82
2018-12-26T11:53:32.232Z,82.54
2018-12-26T11:54:32.828Z,83.59
2018-12-26T11:55:33.424Z,83.97
2018-12-26T11:56:34.027Z,84.16
2018-12-26T11:57:34.625Z,84.44
2018-12-26T11:58:35.226Z,84.91
2018-12-26T11:59:35.821Z,85.01
2018-12-26T12:00:36.424Z,85.58
2018-12-26T12:01:37.020Z,84.82
2018-12-26T12:02:37.623Z,85.39
2018-12-26T12:03:38.217Z,85.20
2018-12-26T12:04:38.816Z,85.86
2018-12-26T12:05:39.417Z,85.96
2018-12-26T12:06:40.007Z,85.25
2018-12-26T12:07:40.612Z,84.87
2018-12-26T12:08:41.223Z,85.25
2018-12-26T12:09:41.810Z,85.44
2018-12-26T12:10:42.414Z,85.44
2018-12-26T12:11:43.015Z,85.82
2018-12-26T12:12:43.612Z,86.39
2018-12-26T12:13:44.218Z,86.96
2018-12-26T12:14:44.823Z,87.58
2018-12-26T12:15:45.425Z,87.30
2018-12-26T12:16:46.027Z,87.20
2018-12-26T12:17:46.626Z,87.39
2018-12-26T12:18:47.227Z,87.39
2018-12-26T12:19:47.832Z,87.30
2018-12-26T12:20:48.441Z,87.87
2018-12-26T12:21:49.030Z,89.25
2018-12-26T12:22:49.630Z,89.48
2018-12-26T12:23:50.235Z,89.72
2018-12-26T12:24:50.838Z,90.38
2018-12-26T12:25:51.440Z,90.38
2018-12-26T12:26:52.040Z,90.10
2018-12-26T12:27:52.642Z,90.19
2018-12-26T12:28:53.246Z,90.76
2018-12-26T12:29:53.852Z,91.14
2018-12-26T12:30:54.452Z,91.90
2018-12-26T12:31:55.057Z,92.09
2018-12-26T12:32:55.655Z,93.13
2018-12-26T12:33:56.259Z,93.27
2018-12-26T12:34:56.860Z,93.37
2018-12-26T12:35:57.461Z,93.65
2018-12-26T12:36:58.058Z,93.75
2018-12-26T12:37:58.649Z,93.94
2018-12-26T12:38:59.249Z,93.18
2018-12-26T12:39:59.844Z,93.27
2018-12-26T12:41:00.446Z,93.84
2018-12-26T12:42:01.048Z,94.51
2018-12-26T12:43:01.652Z,93.94
2018-12-26T12:44:02.262Z,93.75
2018-12-26T12:45:02.866Z,93.84
2018-12-26T12:46:03.462Z,93.75
2018-12-26T12:47:04.058Z,93.65
2018-12-26T12:48:04.663Z,93.65
2018-12-26T12:49:05.262Z,94.04
2018-12-26T12:50:05.856Z,94.04
2018-12-26T12:51:06.459Z,94.13
2018-12-26T12:52:07.061Z,95.36
2018-12-26T12:53:07.663Z,95.26
2018-12-26T12:54:08.268Z,95.93
2018-12-26T12:55:08.865Z,95.84
2018-12-26T12:56:12.147Z,95.84
2018-12-26T12:57:11.058Z,96.22
2018-12-26T12:58:11.653Z,96.22
2018-12-26T12:59:12.253Z,96.97
2018-12-26T13:00:12.848Z,96.87
2018-12-26T13:01:13.448Z,96.78